Time;durP1;ratioP1;P1;durP2;ratioP2;P2;SDS_P1;SDS_P2;PMS_P1;PMS_P2;Temp;Humidity;BMP_temperature;BMP_pressure;BME280_temperature;BME280_humidity;BME280_pressure;Samples;Min_cycle;Max_cycle;Signal;HPM_P1;HPM_P2
2019/05/15 00:00:27;;;;;;;5.05;4.55;;;;;;;5.61;68.80664;95831.28;;;;
2019/05/15 00:01:36;;;;;;;5.05;4.349999;;;;;;;5.47;69.22754;95817.46;;;;
2019/05/15 00:02:37;;;;;;;5.05;4.349999;;;;;;;5.47;69.22754;95817.46;;;;
2019/05/15 00:03:38;;;;;;;5.05;4.349999;;;;;;;5.47;69.22754;95817.46;;;;
2019/05/15 00:04:39;;;;;;;5.05;4.349999;;;;;;;5.47;69.22754;95817.46;;;;
2019/05/15 00:05:41;;;;;;;5.05;4.349999;;;;;;;5.47;69.22754;95817.46;;;;
2019/05/15 00:06:42;;;;;;;5.05;4.349999;;;;;;;5.47;69.22754;95817.46;;;;
2019/05/15 00:07:43;;;;;;;5.05;4.349999;;;;;;;5.47;69.22754;95817.46;;;;
2019/05/15 00:08:44;;;;;;;5.05;4.349999;;;;;;;5.47;69.22754;95817.46;;;;
2019/05/15 00:09:45;;;;;;;5.05;4.349999;;;;;;;5.47;69.22754;95817.46;;;;
2019/05/15 00:10:46;;;;;;;5.05;4.349999;;;;;;;5.47;69.22754;95817.46;;;;
2019/05/15 00:11:47;;;;;;;6.149999;4.55;;;;;;;5.25;69.45801;95808.28;;;;
2019/05/15 00:12:48;;;;;;;6.149999;4.55;;;;;;;5.25;69.45801;95808.28;;;;
2019/05/15 00:13:49;;;;;;;6.149999;4.55;;;;;;;5.25;69.45801;95808.28;;;;
2019/05/15 00:14:50;;;;;;;6.149999;4.55;;;;;;;5.25;69.45801;95808.28;;;;
2019/05/15 00:15:51;;;;;;;6.149999;4.55;;;;;;;5.25;69.45801;95808.28;;;;
2019/05/15 00:16:52;;;;;;;6.149999;4.55;;;;;;;5.25;69.45801;95808.28;;;;
2019/05/15 00:17:54;;;;;;;6.149999;4.55;;;;;;;5.25;69.45801;95808.28;;;;
2019/05/15 00:18:55;;;;;;;6.149999;4.55;;;;;;;5.25;69.45801;95808.28;;;;
2019/05/15 00:19:56;;;;;;;6.149999;4.55;;;;;;;5.25;69.45801;95808.28;;;;
2019/05/15 00:20:57;;;;;;;6.149999;4.55;;;;;;;5.25;69.45801;95808.28;;;;
2019/05/15 00:21:58;;;;;;;6.149999;4.55;;;;;;;5.25;69.45801;95808.28;;;;
2019/05/15 00:22:59;;;;;;;5.95;4.400001;;;;;;;5.26;69.81934;95804.49;;;;
2019/05/15 00:24:00;;;;;;;5.95;4.400001;;;;;;;5.26;69.81934;95804.49;;;;
2019/05/15 00:25:01;;;;;;;5.95;4.400001;;;;;;;5.26;69.81934;95804.49;;;;
2019/05/15 00:26:03;;;;;;;5.95;4.400001;;;;;;;5.26;69.81934;95804.49;;;;
2019/05/15 00:27:04;;;;;;;5.95;4.400001;;;;;;;5.26;69.81934;95804.49;;;;
2019/05/15 00:28:05;;;;;;;5.95;4.400001;;;;;;;5.26;69.81934;95804.49;;;;
2019/05/15 00:29:06;;;;;;;5.95;4.400001;;;;;;;5.26;69.81934;95804.49;;;;
2019/05/15 00:30:07;;;;;;;5.95;4.400001;;;;;;;5.26;69.81934;95804.49;;;;
2019/05/15 00:31:08;;;;;;;5.95;4.400001;;;;;;;5.26;69.81934;95804.49;;;;
2019/05/15 00:32:09;;;;;;;5.95;4.400001;;;;;;;5.26;69.81934;95804.49;;;;
2019/05/15 00:33:10;;;;;;;6;4.4;;;;;;;5.31;69.94336;95796.29;;;;
2019/05/15 00:34:12;;;;;;;6;4.4;;;;;;;5.31;69.94336;95796.29;;;;
2019/05/15 00:35:13;;;;;;;6;4.4;;;;;;;5.31;69.94336;95796.29;;;;
2019/05/15 00:36:14;;;;;;;6;4.4;;;;;;;5.31;69.94336;95796.29;;;;
2019/05/15 00:37:15;;;;;;;6;4.4;;;;;;;5.31;69.94336;95796.29;;;;
2019/05/15 00:38:16;;;;;;;6;4.4;;;;;;;5.31;69.94336;95796.29;;;;
2019/05/15 00:39:17;;;;;;;6;4.4;;;;;;;5.31;69.94336;95796.29;;;;
2019/05/15 00:40:18;;;;;;;6;4.4;;;;;;;5.31;69.94336;95796.29;;;;
2019/05/15 00:41:19;;;;;;;6;4.4;;;;;;;5.31;69.94336;95796.29;;;;
2019/05/15 00:42:20;;;;;;;6;4.4;;;;;;;5.31;69.94336;95796.29;;;;
2019/05/15 00:43:21;;;;;;;6;4.4;;;;;;;5.31;69.94336;95796.29;;;;
2019/05/15 00:44:22;;;;;;;6.2;4.699999;;;;;;;5.45;70.23047;95790.03;;;;
2019/05/15 00:45:23;;;;;;;6.2;4.699999;;;;;;;5.45;70.23047;95790.03;;;;
2019/05/15 00:46:25;;;;;;;6.2;4.699999;;;;;;;5.45;70.23047;95790.03;;;;
2019/05/15 00:47:26;;;;;;;6.2;4.699999;;;;;;;5.45;70.23047;95790.03;;;;
2019/05/15 00:48:27;;;;;;;6.2;4.699999;;;;;;;5.45;70.23047;95790.03;;;;
2019/05/15 00:49:28;;;;;;;6.2;4.699999;;;;;;;5.45;70.23047;95790.03;;;;
2019/05/15 00:50:29;;;;;;;6.2;4.699999;;;;;;;5.45;70.23047;95790.03;;;;
2019/05/15 00:51:30;;;;;;;6.2;4.699999;;;;;;;5.45;70.23047;95790.03;;;;
2019/05/15 00:52:31;;;;;;;6.2;4.699999;;;;;;;5.45;70.23047;95790.03;;;;
2019/05/15 00:53:32;;;;;;;6.2;4.699999;;;;;;;5.45;70.23047;95790.03;;;;
2019/05/15 00:54:33;;;;;;;6.9;5.3;;;;;;;5.45;70.31543;95783.34;;;;
2019/05/15 00:55:34;;;;;;;6.9;5.3;;;;;;;5.45;70.31543;95783.34;;;;
2019/05/15 00:56:36;;;;;;;6.9;5.3;;;;;;;5.45;70.31543;95783.34;;;;
2019/05/15 00:57:37;;;;;;;6.9;5.3;;;;;;;5.45;70.31543;95783.34;;;;
2019/05/15 00:58:38;;;;;;;6.9;5.3;;;;;;;5.45;70.31543;95783.34;;;;
2019/05/15 00:59:39;;;;;;;6.9;5.3;;;;;;;5.45;70.31543;95783.34;;;;
2019/05/15 01:00:41;;;;;;;6.9;5.3;;;;;;;5.45;70.31543;95783.34;;;;
2019/05/15 01:01:42;;;;;;;6.9;5.3;;;;;;;5.45;70.31543;95783.34;;;;
2019/05/15 01:02:43;;;;;;;6.9;5.3;;;;;;;5.45;70.31543;95783.34;;;;
2019/05/15 01:03:44;;;;;;;6.9;5.3;;;;;;;5.45;70.31543;95783.34;;;;
2019/05/15 01:04:46;;;;;;;5.65;5.050001;;;;;;;5.5;70.86328;95766.21;;;;
2019/05/15 01:05:47;;;;;;;5.65;5.050001;;;;;;;5.5;70.86328;95766.21;;;;
2019/05/15 01:06:48;;;;;;;5.65;5.050001;;;;;;;5.5;70.86328;95766.21;;;;
2019/05/15 01:07:49;;;;;;;5.65;5.050001;;;;;;;5.5;70.86328;95766.21;;;;
2019/05/15 01:08:50;;;;;;;5.65;5.050001;;;;;;;5.5;70.86328;95766.21;;;;
2019/05/15 01:09:51;;;;;;;5.65;5.050001;;;;;;;5.5;70.86328;95766.21;;;;
2019/05/15 01:10:53;;;;;;;5.65;5.050001;;;;;;;5.5;70.86328;95766.21;;;;
2019/05/15 01:11:54;;;;;;;5.65;5.050001;;;;;;;5.5;70.86328;95766.21;;;;
2019/05/15 01:12:55;;;;;;;5.65;5.050001;;;;;;;5.5;70.86328;95766.21;;;;
2019/05/15 01:13:56;;;;;;;5.65;5.050001;;;;;;;5.5;70.86328;95766.21;;;;
2019/05/15 01:14:57;;;;;;;5.65;5.050001;;;;;;;5.5;70.86328;95766.21;;;;
2019/05/15 01:15:58;;;;;;;6.7;5.65;;;;;;;5.46;70.87793;95757.4;;;;
2019/05/15 01:17:00;;;;;;;6.7;5.65;;;;;;;5.46;70.87793;95757.4;;;;
2019/05/15 01:18:01;;;;;;;6.7;5.65;;;;;;;5.46;70.87793;95757.4;;;;
2019/05/15 01:19:02;;;;;;;6.7;5.65;;;;;;;5.46;70.87793;95757.4;;;;
2019/05/15 01:20:03;;;;;;;6.7;5.65;;;;;;;5.46;70.87793;95757.4;;;;
2019/05/15 01:21:04;;;;;;;6.7;5.65;;;;;;;5.46;70.87793;95757.4;;;;
2019/05/15 01:22:05;;;;;;;6.7;5.65;;;;;;;5.46;70.87793;95757.4;;;;
2019/05/15 01:23:07;;;;;;;6.7;5.65;;;;;;;5.46;70.87793;95757.4;;;;
2019/05/15 01:24:08;;;;;;;6.7;5.65;;;;;;;5.46;70.87793;95757.4;;;;
2019/05/15 01:25:09;;;;;;;6.7;5.65;;;;;;;5.46;70.87793;95757.4;;;;
2019/05/15 01:26:10;;;;;;;7;6.149999;;;;;;;5.49;71.43164;95744.56;;;;
2019/05/15 01:27:11;;;;;;;7;6.149999;;;;;;;5.49;71.43164;95744.56;;;;
2019/05/15 01:28:12;;;;;;;7;6.149999;;;;;;;5.49;71.43164;95744.56;;;;
2019/05/15 01:29:14;;;;;;;7;6.149999;;;;;;;5.49;71.43164;95744.56;;;;
2019/05/15 01:30:15;;;;;;;7;6.149999;;;;;;;5.49;71.43164;95744.56;;;;
2019/05/15 01:31:16;;;;;;;7;6.149999;;;;;;;5.49;71.43164;95744.56;;;;
2019/05/15 01:32:17;;;;;;;7;6.149999;;;;;;;5.49;71.43164;95744.56;;;;
2019/05/15 01:33:18;;;;;;;7;6.149999;;;;;;;5.49;71.43164;95744.56;;;;
2019/05/15 01:34:19;;;;;;;7;6.149999;;;;;;;5.49;71.43164;95744.56;;;;
2019/05/15 01:35:20;;;;;;;7;6.149999;;;;;;;5.49;71.43164;95744.56;;;;
2019/05/15 01:36:22;;;;;;;7;6.149999;;;;;;;5.49;71.43164;95744.56;;;;
2019/05/15 01:37:23;;;;;;;7.05;6.349999;;;;;;;5.45;71.94531;95746.39;;;;
2019/05/15 01:38:24;;;;;;;7.05;6.349999;;;;;;;5.45;71.94531;95746.39;;;;
2019/05/15 01:39:26;;;;;;;7.05;6.349999;;;;;;;5.45;71.94531;95746.39;;;;
2019/05/15 01:40:27;;;;;;;7.05;6.349999;;;;;;;5.45;71.94531;95746.39;;;;
2019/05/15 01:41:28;;;;;;;7.05;6.349999;;;;;;;5.45;71.94531;95746.39;;;;
2019/05/15 01:42:29;;;;;;;7.05;6.349999;;;;;;;5.45;71.94531;95746.39;;;;
2019/05/15 01:43:30;;;;;;;7.05;6.349999;;;;;;;5.45;71.94531;95746.39;;;;
2019/05/15 01:44:32;;;;;;;7.05;6.349999;;;;;;;5.45;71.94531;95746.39;;;;
2019/05/15 01:45:33;;;;;;;7.05;6.349999;;;;;;;5.45;71.94531;95746.39;;;;
2019/05/15 01:46:34;;;;;;;7.05;6.349999;;;;;;;5.45;71.94531;95746.39;;;;
2019/05/15 01:47:35;;;;;;;7.750001;6.95;;;;;;;5.45;72.4209;95732.05;;;;
2019/05/15 01:48:36;;;;;;;7.750001;6.95;;;;;;;5.45;72.4209;95732.05;;;;
2019/05/15 01:49:37;;;;;;;7.750001;6.95;;;;;;;5.45;72.4209;95732.05;;;;
2019/05/15 01:50:38;;;;;;;7.750001;6.95;;;;;;;5.45;72.4209;95732.05;;;;
2019/05/15 01:51:40;;;;;;;7.750001;6.95;;;;;;;5.45;72.4209;95732.05;;;;
2019/05/15 01:52:41;;;;;;;7.750001;6.95;;;;;;;5.45;72.4209;95732.05;;;;
2019/05/15 01:53:42;;;;;;;7.750001;6.95;;;;;;;5.45;72.4209;95732.05;;;;
2019/05/15 01:54:43;;;;;;;7.750001;6.95;;;;;;;5.45;72.4209;95732.05;;;;
2019/05/15 01:55:44;;;;;;;7.750001;6.95;;;;;;;5.45;72.4209;95732.05;;;;
2019/05/15 01:56:45;;;;;;;7.750001;6.95;;;;;;;5.45;72.4209;95732.05;;;;
2019/05/15 01:57:46;;;;;;;7.750001;6.95;;;;;;;5.45;72.4209;95732.05;;;;
2019/05/15 01:58:47;;;;;;;7.750001;6.95;;;;;;;5.45;72.4209;95732.05;;;;
2019/05/15 01:59:48;;;;;;;7.750001;6.95;;;;;;;5.45;72.4209;95732.05;;;;
2019/05/15 02:00:50;;;;;;;7.750001;6.95;;;;;;;5.45;72.4209;95732.05;;;;
2019/05/15 02:01:51;;;;;;;7.750001;6.95;;;;;;;5.45;72.4209;95732.05;;;;
2019/05/15 02:02:52;;;;;;;7.750001;6.95;;;;;;;5.45;72.4209;95732.05;;;;
2019/05/15 02:03:53;;;;;;;7.750001;6.95;;;;;;;5.45;72.4209;95732.05;;;;
2019/05/15 02:04:54;;;;;;;7.750001;6.95;;;;;;;5.45;72.4209;95732.05;;;;
2019/05/15 02:05:55;;;;;;;7.750001;6.95;;;;;;;5.45;72.4209;95732.05;;;;
2019/05/15 02:06:57;;;;;;;7.750001;6.95;;;;;;;5.45;72.4209;95732.05;;;;
2019/05/15 02:07:58;;;;;;;7.750001;6.95;;;;;;;5.45;72.4209;95732.05;;;;
2019/05/15 02:08:59;;;;;;;7.65;6.95;;;;;;;5.39;73.34082;95710.5;;;;
2019/05/15 02:10:00;;;;;;;7.65;6.95;;;;;;;5.39;73.34082;95710.5;;;;
2019/05/15 02:11:02;;;;;;;7.65;6.95;;;;;;;5.39;73.34082;95710.5;;;;
2019/05/15 02:12:03;;;;;;;7.65;6.95;;;;;;;5.39;73.34082;95710.5;;;;
2019/05/15 02:13:04;;;;;;;7.65;6.95;;;;;;;5.39;73.34082;95710.5;;;;
2019/05/15 02:14:05;;;;;;;7.65;6.95;;;;;;;5.39;73.34082;95710.5;;;;
2019/05/15 02:15:07;;;;;;;7.65;6.95;;;;;;;5.39;73.34082;95710.5;;;;
2019/05/15 02:16:09;;;;;;;7.65;6.95;;;;;;;5.39;73.34082;95710.5;;;;
2019/05/15 02:17:10;;;;;;;7.65;6.95;;;;;;;5.39;73.34082;95710.5;;;;
2019/05/15 02:18:11;;;;;;;7.65;6.95;;;;;;;5.39;73.34082;95710.5;;;;
2019/05/15 02:19:12;;;;;;;9.499999;7.5;;;;;;;5.33;73.58496;95696.12;;;;
2019/05/15 02:20:13;;;;;;;9.499999;7.5;;;;;;;5.33;73.58496;95696.12;;;;
2019/05/15 02:21:15;;;;;;;9.499999;7.5;;;;;;;5.33;73.58496;95696.12;;;;
2019/05/15 02:22:16;;;;;;;9.499999;7.5;;;;;;;5.33;73.58496;95696.12;;;;
2019/05/15 02:23:17;;;;;;;9.499999;7.5;;;;;;;5.33;73.58496;95696.12;;;;
2019/05/15 02:24:18;;;;;;;9.499999;7.5;;;;;;;5.33;73.58496;95696.12;;;;
2019/05/15 02:25:19;;;;;;;9.499999;7.5;;;;;;;5.33;73.58496;95696.12;;;;
2019/05/15 02:26:20;;;;;;;9.499999;7.5;;;;;;;5.33;73.58496;95696.12;;;;
2019/05/15 02:27:21;;;;;;;9.499999;7.5;;;;;;;5.33;73.58496;95696.12;;;;
2019/05/15 02:28:22;;;;;;;9.499999;7.5;;;;;;;5.33;73.58496;95696.12;;;;
2019/05/15 02:29:23;;;;;;;9.499999;7.5;;;;;;;5.33;73.58496;95696.12;;;;
2019/05/15 02:30:24;;;;;;;8.749999;7.55;;;;;;;5.31;74.01563;95688.37;;;;
2019/05/15 02:31:26;;;;;;;8.749999;7.55;;;;;;;5.31;74.01563;95688.37;;;;
2019/05/15 02:32:27;;;;;;;8.749999;7.55;;;;;;;5.31;74.01563;95688.37;;;;
2019/05/15 02:33:28;;;;;;;8.749999;7.55;;;;;;;5.31;74.01563;95688.37;;;;
2019/05/15 02:34:30;;;;;;;8.749999;7.55;;;;;;;5.31;74.01563;95688.37;;;;
2019/05/15 02:35:31;;;;;;;8.749999;7.55;;;;;;;5.31;74.01563;95688.37;;;;
2019/05/15 02:36:32;;;;;;;8.749999;7.55;;;;;;;5.31;74.01563;95688.37;;;;
2019/05/15 02:37:33;;;;;;;8.749999;7.55;;;;;;;5.31;74.01563;95688.37;;;;
2019/05/15 02:38:34;;;;;;;8.749999;7.55;;;;;;;5.31;74.01563;95688.37;;;;
2019/05/15 02:39:35;;;;;;;8.749999;7.55;;;;;;;5.31;74.01563;95688.37;;;;
2019/05/15 02:40:36;;;;;;;9.700001;7.9;;;;;;;5.21;74.34668;95680.69;;;;
2019/05/15 02:41:37;;;;;;;9.700001;7.9;;;;;;;5.21;74.34668;95680.69;;;;
2019/05/15 02:42:39;;;;;;;9.700001;7.9;;;;;;;5.21;74.34668;95680.69;;;;
2019/05/15 02:43:40;;;;;;;9.700001;7.9;;;;;;;5.21;74.34668;95680.69;;;;
2019/05/15 02:44:41;;;;;;;9.700001;7.9;;;;;;;5.21;74.34668;95680.69;;;;
2019/05/15 02:45:42;;;;;;;9.700001;7.9;;;;;;;5.21;74.34668;95680.69;;;;
2019/05/15 02:46:43;;;;;;;9.700001;7.9;;;;;;;5.21;74.34668;95680.69;;;;
2019/05/15 02:47:44;;;;;;;9.700001;7.9;;;;;;;5.21;74.34668;95680.69;;;;
2019/05/15 02:48:45;;;;;;;9.700001;7.9;;;;;;;5.21;74.34668;95680.69;;;;
2019/05/15 02:49:47;;;;;;;9.700001;7.9;;;;;;;5.21;74.34668;95680.69;;;;
2019/05/15 02:50:48;;;;;;;10.4;7.550001;;;;;;;5.18;74.97656;95678.8;;;;
2019/05/15 02:51:49;;;;;;;10.4;7.550001;;;;;;;5.18;74.97656;95678.8;;;;
2019/05/15 02:52:50;;;;;;;10.4;7.550001;;;;;;;5.18;74.97656;95678.8;;;;
2019/05/15 02:53:51;;;;;;;10.4;7.550001;;;;;;;5.18;74.97656;95678.8;;;;
2019/05/15 02:54:52;;;;;;;10.4;7.550001;;;;;;;5.18;74.97656;95678.8;;;;
2019/05/15 02:55:53;;;;;;;10.4;7.550001;;;;;;;5.18;74.97656;95678.8;;;;
2019/05/15 02:56:54;;;;;;;10.4;7.550001;;;;;;;5.18;74.97656;95678.8;;;;
2019/05/15 02:57:55;;;;;;;10.4;7.550001;;;;;;;5.18;74.97656;95678.8;;;;
2019/05/15 02:58:56;;;;;;;10.4;7.550001;;;;;;;5.18;74.97656;95678.8;;;;
2019/05/15 02:59:58;;;;;;;10.4;7.550001;;;;;;;5.18;74.97656;95678.8;;;;
2019/05/15 03:00:59;;;;;;;10.4;7.550001;;;;;;;5.18;74.97656;95678.8;;;;
2019/05/15 03:02:00;;;;;;;10;7.9;;;;;;;5.12;74.99609;95678.75;;;;
2019/05/15 03:03:01;;;;;;;10;7.9;;;;;;;5.12;74.99609;95678.75;;;;
2019/05/15 03:04:02;;;;;;;10;7.9;;;;;;;5.12;74.99609;95678.75;;;;
2019/05/15 03:05:03;;;;;;;10;7.9;;;;;;;5.12;74.99609;95678.75;;;;
2019/05/15 03:06:04;;;;;;;10;7.9;;;;;;;5.12;74.99609;95678.75;;;;
2019/05/15 03:07:05;;;;;;;10;7.9;;;;;;;5.12;74.99609;95678.75;;;;
2019/05/15 03:08:06;;;;;;;10;7.9;;;;;;;5.12;74.99609;95678.75;;;;
2019/05/15 03:09:08;;;;;;;10;7.9;;;;;;;5.12;74.99609;95678.75;;;;
2019/05/15 03:10:09;;;;;;;10;7.9;;;;;;;5.12;74.99609;95678.75;;;;
2019/05/15 03:11:10;;;;;;;10;7.9;;;;;;;5.12;74.99609;95678.75;;;;
2019/05/15 03:12:11;;;;;;;8.2;7;;;;;;;5.12;75.41797;95674.73;;;;
2019/05/15 03:13:12;;;;;;;8.2;7;;;;;;;5.12;75.41797;95674.73;;;;
2019/05/15 03:14:13;;;;;;;8.2;7;;;;;;;5.12;75.41797;95674.73;;;;
2019/05/15 03:15:14;;;;;;;8.2;7;;;;;;;5.12;75.41797;95674.73;;;;
2019/05/15 03:16:15;;;;;;;8.2;7;;;;;;;5.12;75.41797;95674.73;;;;
2019/05/15 03:17:16;;;;;;;8.2;7;;;;;;;5.12;75.41797;95674.73;;;;
2019/05/15 03:18:17;;;;;;;8.2;7;;;;;;;5.12;75.41797;95674.73;;;;
2019/05/15 03:19:18;;;;;;;8.2;7;;;;;;;5.12;75.41797;95674.73;;;;
2019/05/15 03:20:19;;;;;;;8.2;7;;;;;;;5.12;75.41797;95674.73;;;;
2019/05/15 03:21:20;;;;;;;8.2;7;;;;;;;5.12;75.41797;95674.73;;;;
2019/05/15 03:22:21;;;;;;;7.900001;7.099999;;;;;;;5.06;75.61035;95671.91;;;;
2019/05/15 03:23:23;;;;;;;7.900001;7.099999;;;;;;;5.06;75.61035;95671.91;;;;
2019/05/15 03:24:24;;;;;;;7.900001;7.099999;;;;;;;5.06;75.61035;95671.91;;;;
2019/05/15 03:25:25;;;;;;;7.900001;7.099999;;;;;;;5.06;75.61035;95671.91;;;;
2019/05/15 03:26:26;;;;;;;7.900001;7.099999;;;;;;;5.06;75.61035;95671.91;;;;
2019/05/15 03:27:27;;;;;;;7.900001;7.099999;;;;;;;5.06;75.61035;95671.91;;;;
2019/05/15 03:28:28;;;;;;;7.900001;7.099999;;;;;;;5.06;75.61035;95671.91;;;;
2019/05/15 03:29:29;;;;;;;7.900001;7.099999;;;;;;;5.06;75.61035;95671.91;;;;
2019/05/15 03:30:30;;;;;;;7.900001;7.099999;;;;;;;5.06;75.61035;95671.91;;;;
2019/05/15 03:31:31;;;;;;;7.900001;7.099999;;;;;;;5.06;75.61035;95671.91;;;;
2019/05/15 03:32:32;;;;;;;7.900001;7.099999;;;;;;;5.06;75.61035;95671.91;;;;
2019/05/15 03:33:33;;;;;;;8.1;6.849999;;;;;;;5.08;75.8125;95670.78;;;;
2019/05/15 03:34:34;;;;;;;8.1;6.849999;;;;;;;5.08;75.8125;95670.78;;;;
2019/05/15 03:35:35;;;;;;;8.1;6.849999;;;;;;;5.08;75.8125;95670.78;;;;
2019/05/15 03:36:37;;;;;;;8.1;6.849999;;;;;;;5.08;75.8125;95670.78;;;;
2019/05/15 03:37:38;;;;;;;8.1;6.849999;;;;;;;5.08;75.8125;95670.78;;;;
2019/05/15 03:38:39;;;;;;;8.1;6.849999;;;;;;;5.08;75.8125;95670.78;;;;
2019/05/15 03:39:40;;;;;;;8.1;6.849999;;;;;;;5.08;75.8125;95670.78;;;;
2019/05/15 03:40:41;;;;;;;8.1;6.849999;;;;;;;5.08;75.8125;95670.78;;;;
2019/05/15 03:41:42;;;;;;;8.1;6.849999;;;;;;;5.08;75.8125;95670.78;;;;
2019/05/15 03:42:43;;;;;;;8.1;6.849999;;;;;;;5.08;75.8125;95670.78;;;;
2019/05/15 03:43:44;;;;;;;8.15;6.050001;;;;;;;5.02;75.86621;95661.8;;;;
2019/05/15 03:44:45;;;;;;;8.15;6.050001;;;;;;;5.02;75.86621;95661.8;;;;
2019/05/15 03:45:47;;;;;;;8.15;6.050001;;;;;;;5.02;75.86621;95661.8;;;;
2019/05/15 03:46:48;;;;;;;8.15;6.050001;;;;;;;5.02;75.86621;95661.8;;;;
2019/05/15 03:47:49;;;;;;;8.15;6.050001;;;;;;;5.02;75.86621;95661.8;;;;
2019/05/15 03:48:50;;;;;;;8.15;6.050001;;;;;;;5.02;75.86621;95661.8;;;;
2019/05/15 03:49:51;;;;;;;8.15;6.050001;;;;;;;5.02;75.86621;95661.8;;;;
2019/05/15 03:50:52;;;;;;;8.15;6.050001;;;;;;;5.02;75.86621;95661.8;;;;
2019/05/15 03:51:53;;;;;;;8.15;6.050001;;;;;;;5.02;75.86621;95661.8;;;;
2019/05/15 03:52:54;;;;;;;8.15;6.050001;;;;;;;5.02;75.86621;95661.8;;;;
2019/05/15 03:53:55;;;;;;;8.15;6.050001;;;;;;;5.02;75.86621;95661.8;;;;
2019/05/15 03:54:56;;;;;;;7.45;5.95;;;;;;;5.04;76.28125;95665.11;;;;
2019/05/15 03:55:58;;;;;;;7.45;5.95;;;;;;;5.04;76.28125;95665.11;;;;
2019/05/15 03:56:59;;;;;;;7.45;5.95;;;;;;;5.04;76.28125;95665.11;;;;
2019/05/15 03:58:00;;;;;;;7.45;5.95;;;;;;;5.04;76.28125;95665.11;;;;
2019/05/15 03:59:01;;;;;;;7.45;5.95;;;;;;;5.04;76.28125;95665.11;;;;
2019/05/15 04:00:02;;;;;;;7.45;5.95;;;;;;;5.04;76.28125;95665.11;;;;
2019/05/15 04:01:03;;;;;;;7.45;5.95;;;;;;;5.04;76.28125;95665.11;;;;
2019/05/15 04:02:05;;;;;;;7.45;5.95;;;;;;;5.04;76.28125;95665.11;;;;
2019/05/15 04:03:06;;;;;;;7.45;5.95;;;;;;;5.04;76.28125;95665.11;;;;
2019/05/15 04:04:07;;;;;;;7.45;5.95;;;;;;;5.04;76.28125;95665.11;;;;
2019/05/15 04:05:08;;;;;;;7.45;5.95;;;;;;;5.04;76.28125;95665.11;;;;
2019/05/15 04:06:10;;;;;;;7.45;5.95;;;;;;;5.04;76.28125;95665.11;;;;
2019/05/15 04:07:11;;;;;;;7.45;5.95;;;;;;;5.04;76.28125;95665.11;;;;
2019/05/15 04:08:12;;;;;;;7.45;5.95;;;;;;;5.04;76.28125;95665.11;;;;
2019/05/15 04:09:13;;;;;;;7.45;5.95;;;;;;;5.04;76.28125;95665.11;;;;
2019/05/15 04:10:14;;;;;;;7.45;5.95;;;;;;;5.04;76.28125;95665.11;;;;
2019/05/15 04:11:15;;;;;;;7.45;5.95;;;;;;;5.04;76.28125;95665.11;;;;
2019/05/15 04:12:16;;;;;;;7.45;5.95;;;;;;;5.04;76.28125;95665.11;;;;
2019/05/15 04:13:17;;;;;;;7.45;5.95;;;;;;;5.04;76.28125;95665.11;;;;
2019/05/15 04:14:19;;;;;;;7.45;5.95;;;;;;;5.04;76.28125;95665.11;;;;
2019/05/15 04:15:20;;;;;;;7.45;5.95;;;;;;;5.04;76.28125;95665.11;;;;
2019/05/15 04:16:21;;;;;;;7.45;5.95;;;;;;;5.04;76.28125;95665.11;;;;
2019/05/15 04:17:24;;;;;;;7.45;5.95;;;;;;;5.04;76.28125;95665.11;;;;
2019/05/15 04:18:25;;;;;;;7.45;5.95;;;;;;;5.04;76.28125;95665.11;;;;
2019/05/15 04:19:26;;;;;;;7.45;5.95;;;;;;;5.04;76.28125;95665.11;;;;
2019/05/15 04:20:27;;;;;;;7.45;5.95;;;;;;;5.04;76.28125;95665.11;;;;
2019/05/15 04:21:28;;;;;;;7.45;5.95;;;;;;;5.04;76.28125;95665.11;;;;
2019/05/15 04:22:29;;;;;;;7.45;5.95;;;;;;;5.04;76.28125;95665.11;;;;
2019/05/15 04:23:30;;;;;;;7.45;5.95;;;;;;;5.04;76.28125;95665.11;;;;
2019/05/15 04:24:31;;;;;;;7.45;5.95;;;;;;;5.04;76.28125;95665.11;;;;
2019/05/15 04:25:32;;;;;;;7.45;5.95;;;;;;;5.04;76.28125;95665.11;;;;
2019/05/15 04:26:33;;;;;;;7.45;5.95;;;;;;;5.04;76.28125;95665.11;;;;
2019/05/15 04:27:34;;;;;;;7.45;5.95;;;;;;;5.04;76.28125;95665.11;;;;
2019/05/15 04:28:36;;;;;;;7.45;5.95;;;;;;;5.04;76.28125;95665.11;;;;
2019/05/15 04:29:38;;;;;;;7.45;5.95;;;;;;;5.04;76.28125;95665.11;;;;
2019/05/15 04:30:39;;;;;;;7.45;5.95;;;;;;;5.04;76.28125;95665.11;;;;
2019/05/15 04:31:40;;;;;;;7.45;5.95;;;;;;;5.04;76.28125;95665.11;;;;
2019/05/15 04:32:41;;;;;;;7.45;5.95;;;;;;;5.04;76.28125;95665.11;;;;
2019/05/15 04:33:42;;;;;;;7.45;5.95;;;;;;;5.04;76.28125;95665.11;;;;
2019/05/15 04:34:43;;;;;;;7.45;5.95;;;;;;;5.04;76.28125;95665.11;;;;
2019/05/15 04:35:44;;;;;;;7.45;5.95;;;;;;;5.04;76.28125;95665.11;;;;
2019/05/15 04:36:45;;;;;;;7.45;5.95;;;;;;;5.04;76.28125;95665.11;;;;
2019/05/15 04:37:47;;;;;;;7.45;5.95;;;;;;;5.04;76.28125;95665.11;;;;
2019/05/15 04:38:48;;;;;;;7.45;5.95;;;;;;;5.04;76.28125;95665.11;;;;
2019/05/15 05:08:50;;;;;;;6.4;5.25;;;;;;;5.4;76.7041;95645.7;;;;
2019/05/15 05:09:51;;;;;;;6.4;5.25;;;;;;;5.4;76.7041;95645.7;;;;
2019/05/15 05:10:52;;;;;;;6.4;5.25;;;;;;;5.4;76.7041;95645.7;;;;
2019/05/15 05:11:54;;;;;;;6.4;5.25;;;;;;;5.4;76.7041;95645.7;;;;
2019/05/15 05:12:55;;;;;;;6.4;5.25;;;;;;;5.4;76.7041;95645.7;;;;
2019/05/15 05:41:03;;;;;;;6.199999;4.55;;;;;;;5.72;76.81543;95627.17;;;;
2019/05/15 05:42:04;;;;;;;6.199999;4.55;;;;;;;5.72;76.81543;95627.17;;;;
2019/05/15 05:43:05;;;;;;;6.199999;4.55;;;;;;;5.72;76.81543;95627.17;;;;
2019/05/15 05:44:06;;;;;;;6.199999;4.55;;;;;;;5.72;76.81543;95627.17;;;;
2019/05/15 05:45:08;;;;;;;6.199999;4.55;;;;;;;5.72;76.81543;95627.17;;;;
2019/05/15 05:46:09;;;;;;;6.199999;4.55;;;;;;;5.72;76.81543;95627.17;;;;
2019/05/15 05:47:10;;;;;;;6.199999;4.55;;;;;;;5.72;76.81543;95627.17;;;;
2019/05/15 05:48:11;;;;;;;6.199999;4.55;;;;;;;5.72;76.81543;95627.17;;;;
2019/05/15 05:49:12;;;;;;;6.199999;4.55;;;;;;;5.72;76.81543;95627.17;;;;
2019/05/15 05:50:13;;;;;;;6.199999;4.55;;;;;;;5.72;76.81543;95627.17;;;;
2019/05/15 05:51:38;;;;;;;6.700001;4.35;;;;;;;5.77;76.78125;95634.22;;;;
2019/05/15 05:52:39;;;;;;;6.700001;4.35;;;;;;;5.77;76.78125;95634.22;;;;
2019/05/15 05:53:40;;;;;;;6.700001;4.35;;;;;;;5.77;76.78125;95634.22;;;;
2019/05/15 05:54:41;;;;;;;6.700001;4.35;;;;;;;5.77;76.78125;95634.22;;;;
2019/05/15 05:55:42;;;;;;;6.700001;4.35;;;;;;;5.77;76.78125;95634.22;;;;
2019/05/15 05:56:43;;;;;;;6.700001;4.35;;;;;;;5.77;76.78125;95634.22;;;;
2019/05/15 05:57:44;;;;;;;6.700001;4.35;;;;;;;5.77;76.78125;95634.22;;;;
2019/05/15 05:58:45;;;;;;;6.700001;4.35;;;;;;;5.77;76.78125;95634.22;;;;
2019/05/15 05:59:46;;;;;;;6.700001;4.35;;;;;;;5.77;76.78125;95634.22;;;;
2019/05/15 06:00:47;;;;;;;6.700001;4.35;;;;;;;5.77;76.78125;95634.22;;;;
2019/05/15 06:01:50;;;;;;;6.700001;4.35;;;;;;;5.77;76.78125;95634.22;;;;
2019/05/15 06:02:51;;;;;;;6.700001;4.35;;;;;;;5.77;76.78125;95634.22;;;;
2019/05/15 06:03:52;;;;;;;6.700001;4.35;;;;;;;5.77;76.78125;95634.22;;;;
2019/05/15 06:04:54;;;;;;;6.700001;4.35;;;;;;;5.77;76.78125;95634.22;;;;
2019/05/15 06:05:55;;;;;;;6.700001;4.35;;;;;;;5.77;76.78125;95634.22;;;;
2019/05/15 06:06:56;;;;;;;6.700001;4.35;;;;;;;5.77;76.78125;95634.22;;;;
2019/05/15 06:07:57;;;;;;;6.700001;4.35;;;;;;;5.77;76.78125;95634.22;;;;
2019/05/15 06:08:58;;;;;;;6.700001;4.35;;;;;;;5.77;76.78125;95634.22;;;;
2019/05/15 06:09:59;;;;;;;6.700001;4.35;;;;;;;5.77;76.78125;95634.22;;;;
2019/05/15 06:11:00;;;;;;;6.700001;4.35;;;;;;;5.77;76.78125;95634.22;;;;
2019/05/15 06:12:01;;;;;;;8.850001;4.9;;;;;;;6.09;76.62695;95640.7;;;;
2019/05/15 06:13:02;;;;;;;8.850001;4.9;;;;;;;6.09;76.62695;95640.7;;;;
2019/05/15 06:14:03;;;;;;;8.850001;4.9;;;;;;;6.09;76.62695;95640.7;;;;
2019/05/15 06:15:05;;;;;;;8.850001;4.9;;;;;;;6.09;76.62695;95640.7;;;;
2019/05/15 06:16:06;;;;;;;8.850001;4.9;;;;;;;6.09;76.62695;95640.7;;;;
2019/05/15 06:17:07;;;;;;;8.850001;4.9;;;;;;;6.09;76.62695;95640.7;;;;
2019/05/15 06:18:08;;;;;;;8.850001;4.9;;;;;;;6.09;76.62695;95640.7;;;;
2019/05/15 06:19:09;;;;;;;8.850001;4.9;;;;;;;6.09;76.62695;95640.7;;;;
2019/05/15 06:20:10;;;;;;;8.850001;4.9;;;;;;;6.09;76.62695;95640.7;;;;
2019/05/15 06:21:12;;;;;;;8.850001;4.9;;;;;;;6.09;76.62695;95640.7;;;;
2019/05/15 06:22:13;;;;;;;8.850001;4.9;;;;;;;6.09;76.62695;95640.7;;;;
2019/05/15 06:23:14;;;;;;;8.850001;4.9;;;;;;;6.09;76.62695;95640.7;;;;
2019/05/15 06:24:15;;;;;;;8.850001;4.9;;;;;;;6.09;76.62695;95640.7;;;;
2019/05/15 06:25:16;;;;;;;8.850001;4.9;;;;;;;6.09;76.62695;95640.7;;;;
2019/05/15 06:26:17;;;;;;;8.850001;4.9;;;;;;;6.09;76.62695;95640.7;;;;
2019/05/15 06:27:18;;;;;;;8.850001;4.9;;;;;;;6.09;76.62695;95640.7;;;;
2019/05/15 06:28:19;;;;;;;8.850001;4.9;;;;;;;6.09;76.62695;95640.7;;;;
2019/05/15 06:29:20;;;;;;;8.850001;4.9;;;;;;;6.09;76.62695;95640.7;;;;
2019/05/15 06:30:21;;;;;;;8.850001;4.9;;;;;;;6.09;76.62695;95640.7;;;;
2019/05/15 06:31:24;;;;;;;8.850001;4.9;;;;;;;6.09;76.62695;95640.7;;;;
2019/05/15 06:32:25;;;;;;;8.850001;4.9;;;;;;;6.09;76.62695;95640.7;;;;
2019/05/15 06:33:26;;;;;;;5.500001;4.199999;;;;;;;6.31;76.55957;95656.16;;;;
2019/05/15 06:34:27;;;;;;;5.500001;4.199999;;;;;;;6.31;76.55957;95656.16;;;;
2019/05/15 06:35:28;;;;;;;5.500001;4.199999;;;;;;;6.31;76.55957;95656.16;;;;
2019/05/15 06:36:29;;;;;;;5.500001;4.199999;;;;;;;6.31;76.55957;95656.16;;;;
2019/05/15 06:37:31;;;;;;;5.500001;4.199999;;;;;;;6.31;76.55957;95656.16;;;;
2019/05/15 06:38:32;;;;;;;5.500001;4.199999;;;;;;;6.31;76.55957;95656.16;;;;